createdAt,value
2023-02-15T00:01:09.903Z,93.12
2023-02-15T00:03:54.906Z,92.60
2023-02-15T00:06:40.444Z,92.64
2023-02-15T00:09:25.745Z,92.95
2023-02-15T00:12:11.364Z,93.48
2023-02-15T00:14:56.442Z,93.65
2023-02-15T00:17:41.716Z,93.80
2023-02-15T00:20:27.018Z,93.68
2023-02-15T00:23:12.731Z,93.67
2023-02-15T00:26:12.390Z,94.01
2023-02-15T00:28:59.899Z,94.16
2023-02-15T00:31:44.852Z,94.12
2023-02-15T00:34:30.271Z,93.83
2023-02-15T00:37:15.474Z,94.08
2023-02-15T00:40:02.353Z,95.05
2023-02-15T00:42:47.568Z,94.47
2023-02-15T00:45:32.846Z,94.04
2023-02-15T00:48:18.264Z,93.90
2023-02-15T00:51:03.988Z,94.04
2023-02-15T00:53:49.263Z,94.18
2023-02-15T00:56:34.676Z,93.65
2023-02-15T00:59:19.850Z,93.60
2023-02-15T01:02:05.465Z,94.00
2023-02-15T01:04:51.003Z,94.10
2023-02-15T01:07:36.271Z,94.26
2023-02-15T01:10:21.759Z,94.50
2023-02-15T01:13:07.123Z,94.93
2023-02-15T01:15:56.036Z,95.20
2023-02-15T01:18:41.244Z,93.89
2023-02-15T01:21:27.203Z,93.69
2023-02-15T01:24:14.721Z,93.84
2023-02-15T01:27:00.437Z,94.32
2023-02-15T01:29:46.001Z,94.82
2023-02-15T01:32:31.606Z,94.57
2023-02-15T01:35:17.005Z,94.82
2023-02-15T01:38:02.306Z,94.66
2023-02-15T01:40:47.876Z,95.13
2023-02-15T01:43:41.583Z,95.11
2023-02-15T01:46:41.051Z,95.60
2023-02-15T01:49:28.521Z,95.43
2023-02-15T01:52:15.772Z,95.62
2023-02-15T01:55:01.548Z,95.57
2023-02-15T01:57:48.059Z,94.70
2023-02-15T02:00:34.646Z,94.51
2023-02-15T02:03:37.440Z,95.29
2023-02-15T02:06:24.116Z,95.78
2023-02-15T02:09:11.391Z,95.72
2023-02-15T02:11:56.690Z,96.27
2023-02-15T02:14:42.372Z,96.69
2023-02-15T02:17:55.634Z,97.20
2023-02-15T02:21:00.604Z,97.45
2023-02-15T02:24:16.066Z,96.83
2023-02-15T02:27:32.322Z,96.97
2023-02-15T02:30:44.531Z,96.86
2023-02-15T02:33:49.219Z,96.68
2023-02-15T02:36:56.578Z,95.47
2023-02-15T02:40:14.247Z,94.65
2023-02-15T02:43:20.126Z,95.40
2023-02-15T02:46:15.642Z,95.45
2023-02-15T02:49:02.277Z,95.63
2023-02-15T02:51:47.436Z,95.40
2023-02-15T02:54:34.320Z,95.59
2023-02-15T02:57:21.283Z,95.69
2023-02-15T03:00:09.565Z,95.90
2023-02-15T03:03:05.997Z,96.15
2023-02-15T03:05:55.733Z,95.58
2023-02-15T03:08:47.182Z,95.64
2023-02-15T03:11:32.096Z,95.99
2023-02-15T03:14:19.048Z,96.25
2023-02-15T03:17:05.420Z,96.52
2023-02-15T03:19:53.327Z,96.04
2023-02-15T03:22:47.384Z,95.89
2023-02-15T03:25:39.060Z,96.37
2023-02-15T03:28:38.757Z,96.12
2023-02-15T03:31:28.080Z,96.02
2023-02-15T03:34:15.025Z,96.26
2023-02-15T03:37:27.397Z,96.02
2023-02-15T03:40:44.000Z,95.59
2023-02-15T03:43:32.075Z,95.88
2023-02-15T03:46:29.014Z,95.48
2023-02-15T03:49:32.701Z,94.75
2023-02-15T03:52:18.993Z,94.82
2023-02-15T03:55:05.125Z,95.05
2023-02-15T03:58:09.594Z,95.02
2023-02-15T04:01:17.707Z,94.99
2023-02-15T04:04:18.765Z,95.11
2023-02-15T04:07:05.872Z,95.89
2023-02-15T04:10:09.868Z,96.59
2023-02-15T04:12:55.088Z,97.05
2023-02-15T04:15:59.143Z,96.39
2023-02-15T04:19:03.487Z,95.96
2023-02-15T04:22:07.171Z,95.70
2023-02-15T04:25:11.017Z,95.09
2023-02-15T04:27:56.015Z,94.52
2023-02-15T04:30:41.444Z,94.60
2023-02-15T04:33:30.817Z,94.83
2023-02-15T04:36:15.698Z,95.01
2023-02-15T04:39:01.154Z,95.15
2023-02-15T04:41:47.032Z,94.64
2023-02-15T04:44:32.298Z,94.23
2023-02-15T04:47:17.967Z,93.82
2023-02-15T04:50:03.812Z,93.82
2023-02-15T04:52:49.408Z,93.90
2023-02-15T04:55:34.658Z,93.69
2023-02-15T04:58:19.955Z,92.71
2023-02-15T05:01:08.873Z,92.27
2023-02-15T05:03:54.500Z,91.58
2023-02-15T05:06:39.575Z,90.56
2023-02-15T05:09:25.496Z,90.45
2023-02-15T05:12:10.897Z,90.96
2023-02-15T05:14:56.482Z,91.25
2023-02-15T05:17:42.103Z,91.41
2023-02-15T05:20:27.458Z,91.13
2023-02-15T05:23:13.099Z,91.99
2023-02-15T05:26:16.820Z,92.11
2023-02-15T05:29:02.096Z,92.26
2023-02-15T05:31:48.563Z,91.68
2023-02-15T05:34:34.405Z,91.70
2023-02-15T05:37:20.069Z,91.91
2023-02-15T05:40:05.934Z,91.92
2023-02-15T05:42:51.207Z,91.61
2023-02-15T05:45:36.723Z,91.85
2023-02-15T05:48:23.555Z,91.53
2023-02-15T05:51:12.367Z,91.25
2023-02-15T05:53:57.918Z,90.17
2023-02-15T05:56:43.143Z,89.90
2023-02-15T05:59:29.492Z,89.57
2023-02-15T06:02:15.085Z,88.78
2023-02-15T06:05:00.643Z,88.24
2023-02-15T06:07:46.259Z,87.17
2023-02-15T06:10:31.320Z,86.21
2023-02-15T06:13:17.014Z,85.73
2023-02-15T06:16:02.700Z,85.14
2023-02-15T06:18:47.777Z,84.83
2023-02-15T06:21:33.547Z,84.60
2023-02-15T06:24:18.816Z,83.93
2023-02-15T06:27:05.253Z,83.94
2023-02-15T06:29:50.699Z,84.20
2023-02-15T06:32:36.209Z,84.54
2023-02-15T06:35:23.201Z,84.85
2023-02-15T06:38:08.564Z,84.99
2023-02-15T06:40:54.097Z,85.23
2023-02-15T06:43:41.157Z,84.98
2023-02-15T06:46:26.434Z,84.42
2023-02-15T06:49:11.847Z,83.92
2023-02-15T06:51:57.242Z,83.28
2023-02-15T06:54:43.264Z,83.08
2023-02-15T06:57:29.060Z,83.04
2023-02-15T07:00:15.341Z,82.46
2023-02-15T07:03:01.937Z,82.52
2023-02-15T07:05:48.690Z,82.36
2023-02-15T07:08:34.034Z,81.34
2023-02-15T07:11:38.242Z,79.96
2023-02-15T07:14:24.182Z,77.83
2023-02-15T07:17:35.154Z,76.82
2023-02-15T07:20:23.003Z,76.12
2023-02-15T07:23:09.374Z,73.11
2023-02-15T07:26:04.256Z,71.76
2023-02-15T07:28:50.620Z,66.91
2023-02-15T07:31:35.948Z,63.69
2023-02-15T07:34:22.106Z,66.62
2023-02-15T07:37:07.479Z,65.66
2023-02-15T07:39:53.481Z,61.46
2023-02-15T07:42:41.061Z,58.93
2023-02-15T07:45:28.233Z,57.57
2023-02-15T07:48:13.881Z,51.78
2023-02-15T07:51:04.267Z,50.65
2023-02-15T07:53:53.426Z,55.20
2023-02-15T07:56:39.027Z,58.54
2023-02-15T07:59:26.172Z,57.64
2023-02-15T08:02:12.868Z,57.41
2023-02-15T08:04:59.171Z,57.36
2023-02-15T08:07:45.593Z,57.82
2023-02-15T08:10:56.768Z,59.12
2023-02-15T08:13:56.542Z,59.33
2023-02-15T08:16:50.788Z,58.94
2023-02-15T08:19:36.895Z,59.46
2023-02-15T08:22:28.268Z,59.17
2023-02-15T08:25:14.899Z,59.93
2023-02-15T08:28:03.869Z,58.97
2023-02-15T08:30:49.399Z,58.75
2023-02-15T08:33:37.370Z,58.66
2023-02-15T08:36:26.629Z,58.86
2023-02-15T08:39:16.053Z,57.45
2023-02-15T08:42:01.673Z,56.71
2023-02-15T08:44:49.396Z,45.87
2023-02-15T08:47:35.393Z,36.07
2023-02-15T08:50:20.780Z,31.69
2023-02-15T08:53:06.429Z,29.94
2023-02-15T08:55:59.283Z,28.37
2023-02-15T08:58:47.306Z,25.92
2023-02-15T09:01:34.358Z,24.59
2023-02-15T09:04:20.298Z,24.81
2023-02-15T09:07:05.591Z,23.80
2023-02-15T09:09:57.491Z,24.86
2023-02-15T09:12:42.911Z,23.84
2023-02-15T09:15:28.431Z,23.68
2023-02-15T09:18:18.017Z,22.43
2023-02-15T09:21:16.122Z,22.51
2023-02-15T09:24:04.338Z,22.35
2023-02-15T09:26:49.886Z,22.41
2023-02-15T09:29:35.748Z,22.67
2023-02-15T09:32:21.325Z,21.28
2023-02-15T09:35:08.081Z,21.05
2023-02-15T09:37:53.955Z,20.91
2023-02-15T09:40:45.559Z,21.77
2023-02-15T09:44:11.284Z,20.93
2023-02-15T09:47:12.166Z,21.23
2023-02-15T09:50:42.902Z,20.53
2023-02-15T09:53:43.509Z,20.80
2023-02-15T09:56:47.947Z,20.23
2023-02-15T09:59:46.668Z,21.29
2023-02-15T10:03:15.730Z,18.47
2023-02-15T10:06:16.896Z,18.61
2023-02-15T10:09:25.170Z,19.79
2023-02-15T10:12:30.541Z,18.27
2023-02-15T10:15:15.628Z,18.29
2023-02-15T10:18:10.854Z,18.10
2023-02-15T10:21:14.696Z,17.26
2023-02-15T10:24:09.157Z,16.34
2023-02-15T10:27:00.169Z,18.77
2023-02-15T10:30:10.078Z,18.30
2023-02-15T10:33:01.913Z,17.32
2023-02-15T10:36:11.937Z,17.16
2023-02-15T10:39:20.863Z,18.17
2023-02-15T10:42:16.781Z,18.00
2023-02-15T10:45:20.157Z,18.81
2023-02-15T10:48:05.679Z,18.43
2023-02-15T10:51:00.715Z,18.14
2023-02-15T10:54:25.430Z,17.90
2023-02-15T10:57:17.038Z,17.86
2023-02-15T11:00:08.699Z,16.94
2023-02-15T11:03:42.313Z,16.98
2023-02-15T11:06:28.519Z,15.84
2023-02-15T11:09:16.618Z,16.07
2023-02-15T11:12:03.729Z,17.77
2023-02-15T11:15:28.924Z,16.65
2023-02-15T11:18:29.917Z,16.46
2023-02-15T11:21:23.878Z,16.71
2023-02-15T11:24:14.007Z,16.79
2023-02-15T11:27:24.503Z,16.66
2023-02-15T11:30:21.609Z,16.81
2023-02-15T11:33:19.439Z,16.47
2023-02-15T11:36:07.492Z,16.31
2023-02-15T11:38:59.473Z,16.19
2023-02-15T11:41:53.121Z,16.56
2023-02-15T11:44:39.840Z,15.48
2023-02-15T11:47:25.024Z,15.45
2023-02-15T11:50:26.212Z,16.34
2023-02-15T11:53:22.649Z,15.89
2023-02-15T11:56:15.589Z,15.06
2023-02-15T11:59:04.684Z,15.74
2023-02-15T12:01:50.392Z,15.71
2023-02-15T12:04:41.841Z,15.73
2023-02-15T12:07:37.633Z,15.28
2023-02-15T12:10:26.219Z,14.51
2023-02-15T12:13:17.964Z,15.89
2023-02-15T12:16:11.564Z,16.33
2023-02-15T12:18:59.344Z,16.55
2023-02-15T12:21:45.354Z,16.82
2023-02-15T12:24:38.925Z,16.06
2023-02-15T12:27:35.473Z,17.87
2023-02-15T12:30:36.563Z,16.27
2023-02-15T12:33:32.921Z,16.40
2023-02-15T12:36:21.718Z,16.84
2023-02-15T12:39:20.653Z,17.57
2023-02-15T12:42:16.526Z,17.50
2023-02-15T12:45:04.488Z,17.27
2023-02-15T12:48:10.180Z,16.30
2023-02-15T12:51:09.352Z,17.40
2023-02-15T12:53:54.614Z,16.29
2023-02-15T12:56:39.939Z,17.06
2023-02-15T12:59:26.044Z,16.33
2023-02-15T13:02:21.201Z,17.52
2023-02-15T13:05:19.406Z,15.74
2023-02-15T13:08:05.668Z,16.17
2023-02-15T13:11:06.134Z,16.44
2023-02-15T13:13:55.277Z,17.41
2023-02-15T13:16:41.013Z,17.42
2023-02-15T13:19:40.980Z,17.20
2023-02-15T13:22:44.078Z,17.46
2023-02-15T13:25:36.206Z,17.64
2023-02-15T13:28:24.657Z,17.85
2023-02-15T13:31:15.233Z,18.37
2023-02-15T13:34:19.304Z,18.72
2023-02-15T13:37:14.104Z,18.17
